sensor_id;sensor_type;location;lat;lon;timestamp;P1;durP1;ratioP1;P2;durP2;ratioP2
253;SDS011;590;48.772;8.846;2022-09-29T00:00:54;5.60;;;5.20;;
253;SDS011;590;48.772;8.846;2022-09-29T00:03:22;5.55;;;5.25;;
253;SDS011;590;48.772;8.846;2022-09-29T00:05:52;6.57;;;5.15;;
253;SDS011;590;48.772;8.846;2022-09-29T00:08:22;5.50;;;5.20;;
253;SDS011;590;48.772;8.846;2022-09-29T00:10:51;4.75;;;4.45;;
253;SDS011;590;48.772;8.846;2022-09-29T00:13:19;4.40;;;4.10;;
253;SDS011;590;48.772;8.846;2022-09-29T00:15:55;5.55;;;4.70;;
253;SDS011;590;48.772;8.846;2022-09-29T00:18:24;4.10;;;3.88;;
253;SDS011;590;48.772;8.846;2022-09-29T00:20:57;4.00;;;3.55;;
253;SDS011;590;48.772;8.846;2022-09-29T00:23:26;6.35;;;4.10;;
253;SDS011;590;48.772;8.846;2022-09-29T00:26:03;4.68;;;4.38;;
253;SDS011;590;48.772;8.846;2022-09-29T00:28:33;4.85;;;4.57;;
253;SDS011;590;48.772;8.846;2022-09-29T00:31:03;6.25;;;5.03;;
253;SDS011;590;48.772;8.846;2022-09-29T00:33:33;6.22;;;4.60;;
253;SDS011;590;48.772;8.846;2022-09-29T00:36:05;5.30;;;4.70;;
253;SDS011;590;48.772;8.846;2022-09-29T00:38:35;6.32;;;5.03;;
253;SDS011;590;48.772;8.846;2022-09-29T00:41:04;6.13;;;4.72;;
253;SDS011;590;48.772;8.846;2022-09-29T00:43:49;7.13;;;6.63;;
253;SDS011;590;48.772;8.846;2022-09-29T00:46:21;8.02;;;7.63;;
253;SDS011;590;48.772;8.846;2022-09-29T00:48:54;6.05;;;5.60;;
253;SDS011;590;48.772;8.846;2022-09-29T00:51:25;5.65;;;5.35;;
253;SDS011;590;48.772;8.846;2022-09-29T00:53:56;5.70;;;4.50;;
253;SDS011;590;48.772;8.846;2022-09-29T00:56:25;4.95;;;4.38;;
253;SDS011;590;48.772;8.846;2022-09-29T00:58:55;4.40;;;4.10;;
253;SDS011;590;48.772;8.846;2022-09-29T01:01:27;4.10;;;3.90;;
253;SDS011;590;48.772;8.846;2022-09-29T01:03:58;4.40;;;4.10;;
253;SDS011;590;48.772;8.846;2022-09-29T01:06:33;4.50;;;4.20;;
253;SDS011;590;48.772;8.846;2022-09-29T01:09:05;4.40;;;4.10;;
253;SDS011;590;48.772;8.846;2022-09-29T01:11:36;4.88;;;4.57;;
253;SDS011;590;48.772;8.846;2022-09-29T01:14:05;4.07;;;3.88;;
253;SDS011;590;48.772;8.846;2022-09-29T01:16:36;5.80;;;4.78;;
253;SDS011;590;48.772;8.846;2022-09-29T01:19:08;8.27;;;6.90;;
253;SDS011;590;48.772;8.846;2022-09-29T01:21:49;7.13;;;6.22;;
253;SDS011;590;48.772;8.846;2022-09-29T01:24:44;12.05;;;8.07;;
253;SDS011;590;48.772;8.846;2022-09-29T01:27:25;7.57;;;7.00;;
253;SDS011;590;48.772;8.846;2022-09-29T01:30:17;5.60;;;5.10;;
253;SDS011;590;48.772;8.846;2022-09-29T01:35:51;5.35;;;5.05;;
253;SDS011;590;48.772;8.846;2022-09-29T01:38:32;5.57;;;5.28;;
253;SDS011;590;48.772;8.846;2022-09-29T01:41:13;5.78;;;5.47;;
253;SDS011;590;48.772;8.846;2022-09-29T01:43:52;5.38;;;5.03;;
253;SDS011;590;48.772;8.846;2022-09-29T01:46:25;5.25;;;4.95;;
253;SDS011;590;48.772;8.846;2022-09-29T01:48:59;5.35;;;5.05;;
253;SDS011;590;48.772;8.846;2022-09-29T01:51:31;5.47;;;5.18;;
253;SDS011;590;48.772;8.846;2022-09-29T01:54:05;6.32;;;5.47;;
253;SDS011;590;48.772;8.846;2022-09-29T01:56:41;5.03;;;4.72;;
253;SDS011;590;48.772;8.846;2022-09-29T01:59:14;4.43;;;4.13;;
253;SDS011;590;48.772;8.846;2022-09-29T02:01:46;5.53;;;5.15;;
253;SDS011;590;48.772;8.846;2022-09-29T02:04:20;4.72;;;4.43;;
253;SDS011;590;48.772;8.846;2022-09-29T02:06:53;4.93;;;4.33;;
253;SDS011;590;48.772;8.846;2022-09-29T02:09:26;4.93;;;4.63;;
253;SDS011;590;48.772;8.846;2022-09-29T02:11:57;3.78;;;3.58;;
253;SDS011;590;48.772;8.846;2022-09-29T02:14:28;4.47;;;4.18;;
253;SDS011;590;48.772;8.846;2022-09-29T02:17:00;4.18;;;3.92;;
253;SDS011;590;48.772;8.846;2022-09-29T02:19:35;5.13;;;4.82;;
253;SDS011;590;48.772;8.846;2022-09-29T02:22:05;4.90;;;4.35;;
253;SDS011;590;48.772;8.846;2022-09-29T02:24:33;4.75;;;4.45;;
253;SDS011;590;48.772;8.846;2022-09-29T02:27:01;4.80;;;4.50;;
253;SDS011;590;48.772;8.846;2022-09-29T02:29:30;4.90;;;4.60;;
253;SDS011;590;48.772;8.846;2022-09-29T02:31:59;4.10;;;3.90;;
253;SDS011;590;48.772;8.846;2022-09-29T02:34:28;4.15;;;3.70;;
253;SDS011;590;48.772;8.846;2022-09-29T02:37:01;4.93;;;3.97;;
253;SDS011;590;48.772;8.846;2022-09-29T02:39:41;3.90;;;3.70;;
253;SDS011;590;48.772;8.846;2022-09-29T02:42:17;5.13;;;3.95;;
253;SDS011;590;48.772;8.846;2022-09-29T02:45:06;5.25;;;4.00;;
253;SDS011;590;48.772;8.846;2022-09-29T02:50:48;5.40;;;5.13;;
253;SDS011;590;48.772;8.846;2022-09-29T02:53:38;4.50;;;4.20;;
253;SDS011;590;48.772;8.846;2022-09-29T02:56:17;4.53;;;4.22;;
253;SDS011;590;48.772;8.846;2022-09-29T02:58:55;4.97;;;4.60;;
253;SDS011;590;48.772;8.846;2022-09-29T03:01:28;4.50;;;4.20;;
253;SDS011;590;48.772;8.846;2022-09-29T03:03:57;6.47;;;5.40;;
253;SDS011;590;48.772;8.846;2022-09-29T03:06:29;4.33;;;4.03;;
253;SDS011;590;48.772;8.846;2022-09-29T03:08:59;4.50;;;4.20;;
253;SDS011;590;48.772;8.846;2022-09-29T03:11:27;4.40;;;4.10;;
253;SDS011;590;48.772;8.846;2022-09-29T03:13:55;4.47;;;3.55;;
253;SDS011;590;48.772;8.846;2022-09-29T03:16:23;5.60;;;4.60;;
253;SDS011;590;48.772;8.846;2022-09-29T03:18:51;4.70;;;4.40;;
253;SDS011;590;48.772;8.846;2022-09-29T03:21:19;4.75;;;4.45;;
253;SDS011;590;48.772;8.846;2022-09-29T03:23:47;3.88;;;3.67;;
253;SDS011;590;48.772;8.846;2022-09-29T03:26:22;4.40;;;4.10;;
253;SDS011;590;48.772;8.846;2022-09-29T03:28:50;3.83;;;3.63;;
253;SDS011;590;48.772;8.846;2022-09-29T03:31:18;4.55;;;4.28;;
253;SDS011;590;48.772;8.846;2022-09-29T03:33:47;4.80;;;4.40;;
253;SDS011;590;48.772;8.846;2022-09-29T03:36:15;4.68;;;4.38;;
253;SDS011;590;48.772;8.846;2022-09-29T03:38:43;4.87;;;4.10;;
253;SDS011;590;48.772;8.846;2022-09-29T03:41:12;4.50;;;4.20;;
253;SDS011;590;48.772;8.846;2022-09-29T03:43:42;4.53;;;3.90;;
253;SDS011;590;48.772;8.846;2022-09-29T03:46:10;3.65;;;3.45;;
253;SDS011;590;48.772;8.846;2022-09-29T03:48:38;4.80;;;4.50;;
253;SDS011;590;48.772;8.846;2022-09-29T03:51:06;4.45;;;4.15;;
253;SDS011;590;48.772;8.846;2022-09-29T03:53:34;5.38;;;5.07;;
253;SDS011;590;48.772;8.846;2022-09-29T03:56:03;4.57;;;4.25;;
253;SDS011;590;48.772;8.846;2022-09-29T03:58:31;5.95;;;5.40;;
253;SDS011;590;48.772;8.846;2022-09-29T04:01:00;7.38;;;6.93;;
253;SDS011;590;48.772;8.846;2022-09-29T04:03:29;5.00;;;4.70;;
253;SDS011;590;48.772;8.846;2022-09-29T04:05:57;5.80;;;5.03;;
253;SDS011;590;48.772;8.846;2022-09-29T04:08:25;4.70;;;4.00;;
253;SDS011;590;48.772;8.846;2022-09-29T04:10:53;4.57;;;4.28;;
253;SDS011;590;48.772;8.846;2022-09-29T04:13:21;4.38;;;3.70;;
253;SDS011;590;48.772;8.846;2022-09-29T04:15:49;4.67;;;4.37;;
253;SDS011;590;48.772;8.846;2022-09-29T04:18:18;4.60;;;4.30;;
253;SDS011;590;48.772;8.846;2022-09-29T04:20:46;4.43;;;4.13;;
253;SDS011;590;48.772;8.846;2022-09-29T04:23:14;4.07;;;3.88;;
253;SDS011;590;48.772;8.846;2022-09-29T04:25:42;4.82;;;4.53;;
253;SDS011;590;48.772;8.846;2022-09-29T04:28:13;4.38;;;4.07;;
253;SDS011;590;48.772;8.846;2022-09-29T04:30:41;4.50;;;4.22;;
253;SDS011;590;48.772;8.846;2022-09-29T04:33:09;4.22;;;3.97;;
253;SDS011;590;48.772;8.846;2022-09-29T04:35:38;5.05;;;4.75;;
253;SDS011;590;48.772;8.846;2022-09-29T04:38:06;4.07;;;3.88;;
253;SDS011;590;48.772;8.846;2022-09-29T04:40:34;4.43;;;4.13;;
253;SDS011;590;48.772;8.846;2022-09-29T04:43:03;4.50;;;4.20;;
253;SDS011;590;48.772;8.846;2022-09-29T04:45:31;4.70;;;4.40;;
253;SDS011;590;48.772;8.846;2022-09-29T04:47:59;6.25;;;4.78;;
253;SDS011;590;48.772;8.846;2022-09-29T04:50:27;4.65;;;4.35;;
253;SDS011;590;48.772;8.846;2022-09-29T04:52:57;4.40;;;4.10;;
253;SDS011;590;48.772;8.846;2022-09-29T04:55:25;4.40;;;4.18;;
253;SDS011;590;48.772;8.846;2022-09-29T04:57:53;4.53;;;4.15;;
253;SDS011;590;48.772;8.846;2022-09-29T05:00:21;4.38;;;4.07;;
253;SDS011;590;48.772;8.846;2022-09-29T05:02:49;4.40;;;4.10;;
253;SDS011;590;48.772;8.846;2022-09-29T05:05:17;5.40;;;4.20;;
253;SDS011;590;48.772;8.846;2022-09-29T05:07:45;4.53;;;4.22;;
253;SDS011;590;48.772;8.846;2022-09-29T05:10:15;4.57;;;4.28;;
253;SDS011;590;48.772;8.846;2022-09-29T05:12:46;4.43;;;4.13;;
253;SDS011;590;48.772;8.846;2022-09-29T05:15:15;4.50;;;4.20;;
253;SDS011;590;48.772;8.846;2022-09-29T05:17:50;4.30;;;4.00;;
253;SDS011;590;48.772;8.846;2022-09-29T05:20:18;7.03;;;5.57;;
253;SDS011;590;48.772;8.846;2022-09-29T05:22:46;3.90;;;3.70;;
253;SDS011;590;48.772;8.846;2022-09-29T05:25:15;4.00;;;3.80;;
253;SDS011;590;48.772;8.846;2022-09-29T05:27:43;4.97;;;4.00;;
253;SDS011;590;48.772;8.846;2022-09-29T05:30:11;4.38;;;4.03;;
253;SDS011;590;48.772;8.846;2022-09-29T05:32:41;4.88;;;4.20;;
253;SDS011;590;48.772;8.846;2022-09-29T05:35:09;6.63;;;5.00;;
253;SDS011;590;48.772;8.846;2022-09-29T05:37:37;4.38;;;4.07;;
253;SDS011;590;48.772;8.846;2022-09-29T05:40:06;4.30;;;3.85;;
253;SDS011;590;48.772;8.846;2022-09-29T05:42:36;4.72;;;4.43;;
253;SDS011;590;48.772;8.846;2022-09-29T05:45:06;4.50;;;4.20;;
253;SDS011;590;48.772;8.846;2022-09-29T05:47:39;4.40;;;4.10;;
253;SDS011;590;48.772;8.846;2022-09-29T05:50:08;4.38;;;4.07;;
253;SDS011;590;48.772;8.846;2022-09-29T05:52:36;5.95;;;4.43;;
253;SDS011;590;48.772;8.846;2022-09-29T05:55:05;4.30;;;4.05;;
253;SDS011;590;48.772;8.846;2022-09-29T05:57:37;4.72;;;4.43;;
253;SDS011;590;48.772;8.846;2022-09-29T06:00:06;4.60;;;4.30;;
253;SDS011;590;48.772;8.846;2022-09-29T06:02:34;4.85;;;4.55;;
253;SDS011;590;48.772;8.846;2022-09-29T06:05:02;5.03;;;4.72;;
253;SDS011;590;48.772;8.846;2022-09-29T06:07:31;5.38;;;5.07;;
253;SDS011;590;48.772;8.846;2022-09-29T06:09:59;5.90;;;5.60;;
253;SDS011;590;48.772;8.846;2022-09-29T06:12:27;5.13;;;4.82;;
253;SDS011;590;48.772;8.846;2022-09-29T06:14:56;6.13;;;5.82;;
253;SDS011;590;48.772;8.846;2022-09-29T06:17:24;4.85;;;4.55;;
253;SDS011;590;48.772;8.846;2022-09-29T06:19:52;6.20;;;5.88;;
253;SDS011;590;48.772;8.846;2022-09-29T06:22:20;7.38;;;6.97;;
253;SDS011;590;48.772;8.846;2022-09-29T06:24:48;6.00;;;5.70;;
253;SDS011;590;48.772;8.846;2022-09-29T06:27:16;9.57;;;5.20;;
253;SDS011;590;48.772;8.846;2022-09-29T06:29:44;5.78;;;5.47;;
253;SDS011;590;48.772;8.846;2022-09-29T06:32:13;5.45;;;5.15;;
253;SDS011;590;48.772;8.846;2022-09-29T06:34:42;5.20;;;4.90;;
253;SDS011;590;48.772;8.846;2022-09-29T06:37:24;5.60;;;5.30;;
253;SDS011;590;48.772;8.846;2022-09-29T06:40:01;5.40;;;5.10;;
253;SDS011;590;48.772;8.846;2022-09-29T06:42:36;8.03;;;7.63;;
253;SDS011;590;48.772;8.846;2022-09-29T06:45:05;9.23;;;8.73;;
253;SDS011;590;48.772;8.846;2022-09-29T06:47:35;9.17;;;8.67;;
253;SDS011;590;48.772;8.846;2022-09-29T06:50:06;7.95;;;7.55;;
253;SDS011;590;48.772;8.846;2022-09-29T06:52:43;12.03;;;11.43;;
253;SDS011;590;48.772;8.846;2022-09-29T06:55:26;10.10;;;9.60;;
253;SDS011;590;48.772;8.846;2022-09-29T06:57:54;9.10;;;8.60;;
253;SDS011;590;48.772;8.846;2022-09-29T07:00:29;9.10;;;8.60;;
253;SDS011;590;48.772;8.846;2022-09-29T07:02:59;8.73;;;8.23;;
253;SDS011;590;48.772;8.846;2022-09-29T07:05:27;11.07;;;9.00;;
253;SDS011;590;48.772;8.846;2022-09-29T07:07:57;8.87;;;8.37;;
253;SDS011;590;48.772;8.846;2022-09-29T07:10:26;9.10;;;8.60;;
253;SDS011;590;48.772;8.846;2022-09-29T07:12:55;9.57;;;9.07;;
253;SDS011;590;48.772;8.846;2022-09-29T07:15:23;10.57;;;10.00;;
253;SDS011;590;48.772;8.846;2022-09-29T07:17:57;9.67;;;9.10;;
253;SDS011;590;48.772;8.846;2022-09-29T07:20:28;8.67;;;8.17;;
253;SDS011;590;48.772;8.846;2022-09-29T07:22:56;7.77;;;7.37;;
253;SDS011;590;48.772;8.846;2022-09-29T07:25:25;7.33;;;6.93;;
253;SDS011;590;48.772;8.846;2022-09-29T07:28:13;7.97;;;7.60;;
253;SDS011;590;48.772;8.846;2022-09-29T07:30:41;7.97;;;7.57;;
253;SDS011;590;48.772;8.846;2022-09-29T07:33:09;7.87;;;7.47;;
253;SDS011;590;48.772;8.846;2022-09-29T07:35:38;8.43;;;7.97;;
253;SDS011;590;48.772;8.846;2022-09-29T07:38:06;9.10;;;8.60;;
253;SDS011;590;48.772;8.846;2022-09-29T07:40:34;9.77;;;9.13;;
253;SDS011;590;48.772;8.846;2022-09-29T07:43:03;8.20;;;7.50;;
253;SDS011;590;48.772;8.846;2022-09-29T07:45:32;8.17;;;7.77;;
253;SDS011;590;48.772;8.846;2022-09-29T07:48:00;8.93;;;7.43;;
253;SDS011;590;48.772;8.846;2022-09-29T07:50:29;7.40;;;7.00;;
253;SDS011;590;48.772;8.846;2022-09-29T07:52:59;8.10;;;7.70;;
253;SDS011;590;48.772;8.846;2022-09-29T07:55:26;7.60;;;7.20;;
253;SDS011;590;48.772;8.846;2022-09-29T07:57:54;7.30;;;6.90;;
253;SDS011;590;48.772;8.846;2022-09-29T08:00:23;8.07;;;7.67;;
253;SDS011;590;48.772;8.846;2022-09-29T08:02:51;6.77;;;6.37;;
253;SDS011;590;48.772;8.846;2022-09-29T08:05:19;6.47;;;6.07;;
253;SDS011;590;48.772;8.846;2022-09-29T08:07:49;5.90;;;5.60;;
253;SDS011;590;48.772;8.846;2022-09-29T08:10:19;5.43;;;5.13;;
253;SDS011;590;48.772;8.846;2022-09-29T08:12:47;5.57;;;5.27;;
253;SDS011;590;48.772;8.846;2022-09-29T08:15:15;5.40;;;5.10;;
253;SDS011;590;48.772;8.846;2022-09-29T08:17:43;4.90;;;4.60;;
253;SDS011;590;48.772;8.846;2022-09-29T08:20:11;4.83;;;4.53;;
253;SDS011;590;48.772;8.846;2022-09-29T08:22:40;5.47;;;5.17;;
253;SDS011;590;48.772;8.846;2022-09-29T08:25:08;5.23;;;4.93;;
253;SDS011;590;48.772;8.846;2022-09-29T08:27:37;5.43;;;5.00;;
253;SDS011;590;48.772;8.846;2022-09-29T08:30:19;4.80;;;4.50;;
253;SDS011;590;48.772;8.846;2022-09-29T08:32:50;4.93;;;4.63;;
253;SDS011;590;48.772;8.846;2022-09-29T08:35:19;4.17;;;3.93;;
253;SDS011;590;48.772;8.846;2022-09-29T08:37:47;4.70;;;4.40;;
253;SDS011;590;48.772;8.846;2022-09-29T08:40:15;4.53;;;4.23;;
253;SDS011;590;48.772;8.846;2022-09-29T08:42:47;4.60;;;4.30;;
253;SDS011;590;48.772;8.846;2022-09-29T08:45:27;3.97;;;3.80;;
253;SDS011;590;48.772;8.846;2022-09-29T08:48:01;6.10;;;4.43;;
253;SDS011;590;48.772;8.846;2022-09-29T08:50:45;4.67;;;4.37;;
253;SDS011;590;48.772;8.846;2022-09-29T08:53:19;3.87;;;3.67;;
253;SDS011;590;48.772;8.846;2022-09-29T08:55:56;3.67;;;3.47;;
253;SDS011;590;48.772;8.846;2022-09-29T08:58:27;4.80;;;4.20;;
253;SDS011;590;48.772;8.846;2022-09-29T09:00:59;4.47;;;4.17;;
253;SDS011;590;48.772;8.846;2022-09-29T09:06:45;4.23;;;3.70;;
253;SDS011;590;48.772;8.846;2022-09-29T09:12:24;3.63;;;3.47;;
253;SDS011;590;48.772;8.846;2022-09-29T09:15:16;3.77;;;3.57;;
253;SDS011;590;48.772;8.846;2022-09-29T09:17:58;3.27;;;3.07;;
253;SDS011;590;48.772;8.846;2022-09-29T09:21:00;3.60;;;3.40;;
253;SDS011;590;48.772;8.846;2022-09-29T09:23:37;3.93;;;3.73;;
253;SDS011;590;48.772;8.846;2022-09-29T09:26:16;3.93;;;3.33;;
253;SDS011;590;48.772;8.846;2022-09-29T09:28:47;5.60;;;4.73;;
253;SDS011;590;48.772;8.846;2022-09-29T09:31:22;4.37;;;3.73;;
253;SDS011;590;48.772;8.846;2022-09-29T09:33:55;2.70;;;2.50;;
253;SDS011;590;48.772;8.846;2022-09-29T09:36:33;4.33;;;3.50;;
253;SDS011;590;48.772;8.846;2022-09-29T09:39:05;3.53;;;3.13;;
253;SDS011;590;48.772;8.846;2022-09-29T09:41:41;3.80;;;3.60;;
253;SDS011;590;48.772;8.846;2022-09-29T09:44:14;3.87;;;3.00;;
253;SDS011;590;48.772;8.846;2022-09-29T09:46:47;4.30;;;4.00;;
253;SDS011;590;48.772;8.846;2022-09-29T09:49:19;4.33;;;4.07;;
253;SDS011;590;48.772;8.846;2022-09-29T09:51:52;3.30;;;3.03;;
253;SDS011;590;48.772;8.846;2022-09-29T09:54:26;4.03;;;3.73;;
253;SDS011;590;48.772;8.846;2022-09-29T09:57:16;3.73;;;3.53;;
253;SDS011;590;48.772;8.846;2022-09-29T10:00:04;3.00;;;2.80;;
253;SDS011;590;48.772;8.846;2022-09-29T10:02:40;3.57;;;3.37;;
253;SDS011;590;48.772;8.846;2022-09-29T10:05:11;3.63;;;3.43;;
253;SDS011;590;48.772;8.846;2022-09-29T10:07:42;3.30;;;3.10;;
253;SDS011;590;48.772;8.846;2022-09-29T10:10:15;3.10;;;2.90;;
253;SDS011;590;48.772;8.846;2022-09-29T10:12:45;2.70;;;2.50;;
253;SDS011;590;48.772;8.846;2022-09-29T10:15:17;3.30;;;3.13;;
253;SDS011;590;48.772;8.846;2022-09-29T10:17:53;2.90;;;2.77;;
253;SDS011;590;48.772;8.846;2022-09-29T10:20:31;2.73;;;2.40;;
253;SDS011;590;48.772;8.846;2022-09-29T10:23:19;2.30;;;2.10;;
253;SDS011;590;48.772;8.846;2022-09-29T10:25:52;2.80;;;2.17;;
253;SDS011;590;48.772;8.846;2022-09-29T10:28:25;2.20;;;2.00;;
253;SDS011;590;48.772;8.846;2022-09-29T10:31:03;2.27;;;2.03;;
253;SDS011;590;48.772;8.846;2022-09-29T10:33:49;3.70;;;2.17;;
253;SDS011;590;48.772;8.846;2022-09-29T10:36:19;2.30;;;2.10;;
253;SDS011;590;48.772;8.846;2022-09-29T10:38:49;3.40;;;2.13;;
253;SDS011;590;48.772;8.846;2022-09-29T10:41:19;4.10;;;1.77;;
253;SDS011;590;48.772;8.846;2022-09-29T10:43:47;2.47;;;1.40;;
253;SDS011;590;48.772;8.846;2022-09-29T10:46:35;2.70;;;2.03;;
253;SDS011;590;48.772;8.846;2022-09-29T10:49:15;2.13;;;1.90;;
253;SDS011;590;48.772;8.846;2022-09-29T10:51:49;1.73;;;1.60;;
253;SDS011;590;48.772;8.846;2022-09-29T10:54:24;2.00;;;1.90;;
253;SDS011;590;48.772;8.846;2022-09-29T10:56:54;1.97;;;1.70;;
253;SDS011;590;48.772;8.846;2022-09-29T10:59:23;1.73;;;1.63;;
253;SDS011;590;48.772;8.846;2022-09-29T11:01:53;1.40;;;1.33;;
253;SDS011;590;48.772;8.846;2022-09-29T11:04:25;3.17;;;1.10;;
253;SDS011;590;48.772;8.846;2022-09-29T11:06:55;1.30;;;1.30;;
253;SDS011;590;48.772;8.846;2022-09-29T11:09:36;1.50;;;1.33;;
253;SDS011;590;48.772;8.846;2022-09-29T11:12:23;1.67;;;1.60;;
253;SDS011;590;48.772;8.846;2022-09-29T11:14:54;1.73;;;1.63;;
253;SDS011;590;48.772;8.846;2022-09-29T11:17:23;1.43;;;1.40;;
253;SDS011;590;48.772;8.846;2022-09-29T11:19:53;2.37;;;1.40;;
253;SDS011;590;48.772;8.846;2022-09-29T11:22:30;3.23;;;1.20;;
253;SDS011;590;48.772;8.846;2022-09-29T11:25:31;1.43;;;1.33;;
253;SDS011;590;48.772;8.846;2022-09-29T11:28:17;2.50;;;2.30;;
253;SDS011;590;48.772;8.846;2022-09-29T11:31:16;3.53;;;2.80;;
253;SDS011;590;48.772;8.846;2022-09-29T11:34:03;2.17;;;2.00;;
253;SDS011;590;48.772;8.846;2022-09-29T11:36:44;1.87;;;1.70;;
253;SDS011;590;48.772;8.846;2022-09-29T11:39:21;1.40;;;1.30;;
253;SDS011;590;48.772;8.846;2022-09-29T11:41:59;1.43;;;1.20;;
253;SDS011;590;48.772;8.846;2022-09-29T11:47:37;2.60;;;1.40;;
253;SDS011;590;48.772;8.846;2022-09-29T11:50:15;1.33;;;1.30;;
253;SDS011;590;48.772;8.846;2022-09-29T11:52:54;1.60;;;1.50;;
253;SDS011;590;48.772;8.846;2022-09-29T11:55:36;5.07;;;1.60;;
253;SDS011;590;48.772;8.846;2022-09-29T11:58:20;2.07;;;1.43;;
253;SDS011;590;48.772;8.846;2022-09-29T12:00:57;1.23;;;1.17;;
253;SDS011;590;48.772;8.846;2022-09-29T12:03:36;1.40;;;1.23;;
253;SDS011;590;48.772;8.846;2022-09-29T12:06:20;1.87;;;1.60;;
253;SDS011;590;48.772;8.846;2022-09-29T12:09:03;1.50;;;1.40;;
253;SDS011;590;48.772;8.846;2022-09-29T12:11:43;1.43;;;1.33;;
253;SDS011;590;48.772;8.846;2022-09-29T12:15:02;1.80;;;1.13;;
253;SDS011;590;48.772;8.846;2022-09-29T12:17:48;0.97;;;0.90;;
253;SDS011;590;48.772;8.846;2022-09-29T12:20:21;1.40;;;1.30;;
253;SDS011;590;48.772;8.846;2022-09-29T12:22:52;1.80;;;1.23;;
253;SDS011;590;48.772;8.846;2022-09-29T12:25:25;2.00;;;1.30;;
253;SDS011;590;48.772;8.846;2022-09-29T12:27:57;1.70;;;1.60;;
253;SDS011;590;48.772;8.846;2022-09-29T12:30:39;3.23;;;1.57;;
253;SDS011;590;48.772;8.846;2022-09-29T12:33:14;1.10;;;1.00;;
253;SDS011;590;48.772;8.846;2022-09-29T12:35:47;4.70;;;1.57;;
253;SDS011;590;48.772;8.846;2022-09-29T12:38:21;1.73;;;1.37;;
253;SDS011;590;48.772;8.846;2022-09-29T12:40:57;3.50;;;1.50;;
253;SDS011;590;48.772;8.846;2022-09-29T12:43:31;1.63;;;1.47;;
253;SDS011;590;48.772;8.846;2022-09-29T12:46:09;1.77;;;1.63;;
253;SDS011;590;48.772;8.846;2022-09-29T12:48:45;1.37;;;1.10;;
253;SDS011;590;48.772;8.846;2022-09-29T12:51:19;1.37;;;1.37;;
253;SDS011;590;48.772;8.846;2022-09-29T12:53:57;2.63;;;1.30;;
253;SDS011;590;48.772;8.846;2022-09-29T12:56:39;1.63;;;1.33;;
253;SDS011;590;48.772;8.846;2022-09-29T12:59:13;2.67;;;1.47;;
253;SDS011;590;48.772;8.846;2022-09-29T13:01:49;1.33;;;1.20;;
253;SDS011;590;48.772;8.846;2022-09-29T13:04:38;1.40;;;1.40;;
253;SDS011;590;48.772;8.846;2022-09-29T13:07:28;1.63;;;1.27;;
253;SDS011;590;48.772;8.846;2022-09-29T13:10:21;2.63;;;1.30;;
253;SDS011;590;48.772;8.846;2022-09-29T13:13:11;1.90;;;0.90;;
253;SDS011;590;48.772;8.846;2022-09-29T13:15:57;1.27;;;1.10;;
253;SDS011;590;48.772;8.846;2022-09-29T13:18:41;1.90;;;1.30;;
253;SDS011;590;48.772;8.846;2022-09-29T13:21:33;1.70;;;1.10;;
253;SDS011;590;48.772;8.846;2022-09-29T13:24:09;3.40;;;1.10;;
253;SDS011;590;48.772;8.846;2022-09-29T13:26:57;1.10;;;1.00;;
253;SDS011;590;48.772;8.846;2022-09-29T13:29:39;1.23;;;1.13;;
253;SDS011;590;48.772;8.846;2022-09-29T13:32:12;1.70;;;1.37;;
253;SDS011;590;48.772;8.846;2022-09-29T13:34:45;1.77;;;1.47;;
253;SDS011;590;48.772;8.846;2022-09-29T13:37:15;1.30;;;1.20;;
253;SDS011;590;48.772;8.846;2022-09-29T13:39:50;2.30;;;1.37;;
253;SDS011;590;48.772;8.846;2022-09-29T13:42:37;2.10;;;1.00;;
253;SDS011;590;48.772;8.846;2022-09-29T13:54:22;8.27;;;1.27;;
253;SDS011;590;48.772;8.846;2022-09-29T13:57:06;1.30;;;1.20;;
253;SDS011;590;48.772;8.846;2022-09-29T14:00:04;1.70;;;1.17;;
253;SDS011;590;48.772;8.846;2022-09-29T14:02:45;1.13;;;1.10;;
253;SDS011;590;48.772;8.846;2022-09-29T14:08:07;1.33;;;1.30;;
253;SDS011;590;48.772;8.846;2022-09-29T14:10:43;1.93;;;1.40;;
253;SDS011;590;48.772;8.846;2022-09-29T14:13:14;2.00;;;1.53;;
253;SDS011;590;48.772;8.846;2022-09-29T14:15:50;1.47;;;1.40;;
253;SDS011;590;48.772;8.846;2022-09-29T14:18:27;1.40;;;1.17;;
253;SDS011;590;48.772;8.846;2022-09-29T14:21:00;1.80;;;1.70;;
253;SDS011;590;48.772;8.846;2022-09-29T14:29:10;1.47;;;1.37;;
253;SDS011;590;48.772;8.846;2022-09-29T14:31:47;1.47;;;1.33;;
253;SDS011;590;48.772;8.846;2022-09-29T14:34:20;1.57;;;1.50;;
253;SDS011;590;48.772;8.846;2022-09-29T14:36:50;2.20;;;1.40;;
253;SDS011;590;48.772;8.846;2022-09-29T14:39:21;1.40;;;1.30;;
253;SDS011;590;48.772;8.846;2022-09-29T14:41:57;1.30;;;1.17;;
253;SDS011;590;48.772;8.846;2022-09-29T14:44:26;2.20;;;1.30;;
253;SDS011;590;48.772;8.846;2022-09-29T14:47:29;2.13;;;1.90;;
253;SDS011;590;48.772;8.846;2022-09-29T14:50:30;2.30;;;1.50;;
253;SDS011;590;48.772;8.846;2022-09-29T14:53:28;3.63;;;3.43;;
253;SDS011;590;48.772;8.846;2022-09-29T14:56:10;7.90;;;5.47;;
253;SDS011;590;48.772;8.846;2022-09-29T14:58:51;3.00;;;2.80;;
253;SDS011;590;48.772;8.846;2022-09-29T15:01:28;3.97;;;2.60;;
253;SDS011;590;48.772;8.846;2022-09-29T15:04:03;2.10;;;1.70;;
253;SDS011;590;48.772;8.846;2022-09-29T15:06:43;1.57;;;1.47;;
253;SDS011;590;48.772;8.846;2022-09-29T15:09:14;3.90;;;1.80;;
253;SDS011;590;48.772;8.846;2022-09-29T15:11:47;2.17;;;1.70;;
253;SDS011;590;48.772;8.846;2022-09-29T15:14:20;2.47;;;2.07;;
253;SDS011;590;48.772;8.846;2022-09-29T15:16:52;2.63;;;2.43;;
253;SDS011;590;48.772;8.846;2022-09-29T15:19:42;2.60;;;2.40;;
253;SDS011;590;48.772;8.846;2022-09-29T15:22:30;5.70;;;2.67;;
253;SDS011;590;48.772;8.846;2022-09-29T15:25:20;3.13;;;2.23;;
253;SDS011;590;48.772;8.846;2022-09-29T15:27:57;3.30;;;2.40;;
253;SDS011;590;48.772;8.846;2022-09-29T15:30:27;2.87;;;2.60;;
253;SDS011;590;48.772;8.846;2022-09-29T15:33:05;6.20;;;2.13;;
253;SDS011;590;48.772;8.846;2022-09-29T15:35:45;2.10;;;1.90;;
253;SDS011;590;48.772;8.846;2022-09-29T15:38:25;2.47;;;2.27;;
253;SDS011;590;48.772;8.846;2022-09-29T15:41:00;4.30;;;2.50;;
253;SDS011;590;48.772;8.846;2022-09-29T15:43:38;2.47;;;2.27;;
253;SDS011;590;48.772;8.846;2022-09-29T15:46:12;3.50;;;2.90;;
253;SDS011;590;48.772;8.846;2022-09-29T15:49:01;2.90;;;2.70;;
253;SDS011;590;48.772;8.846;2022-09-29T15:51:40;2.47;;;2.30;;
253;SDS011;590;48.772;8.846;2022-09-29T15:54:12;2.80;;;2.60;;
253;SDS011;590;48.772;8.846;2022-09-29T15:56:42;2.63;;;2.43;;
253;SDS011;590;48.772;8.846;2022-09-29T15:59:37;2.50;;;2.30;;
253;SDS011;590;48.772;8.846;2022-09-29T16:02:12;3.00;;;2.80;;
253;SDS011;590;48.772;8.846;2022-09-29T16:04:50;2.53;;;2.27;;
253;SDS011;590;48.772;8.846;2022-09-29T16:07:21;5.83;;;4.00;;
253;SDS011;590;48.772;8.846;2022-09-29T16:09:57;4.10;;;3.40;;
253;SDS011;590;48.772;8.846;2022-09-29T16:12:29;3.03;;;2.83;;
253;SDS011;590;48.772;8.846;2022-09-29T16:15:02;4.50;;;2.97;;
253;SDS011;590;48.772;8.846;2022-09-29T16:17:30;3.53;;;3.33;;
253;SDS011;590;48.772;8.846;2022-09-29T16:19:58;5.53;;;3.23;;
253;SDS011;590;48.772;8.846;2022-09-29T16:22:27;4.10;;;3.33;;
253;SDS011;590;48.772;8.846;2022-09-29T16:25:06;4.10;;;3.87;;
253;SDS011;590;48.772;8.846;2022-09-29T16:27:38;3.33;;;2.97;;
253;SDS011;590;48.772;8.846;2022-09-29T16:30:24;3.20;;;3.00;;
253;SDS011;590;48.772;8.846;2022-09-29T16:32:54;3.73;;;2.93;;
253;SDS011;590;48.772;8.846;2022-09-29T16:35:35;2.73;;;2.53;;
253;SDS011;590;48.772;8.846;2022-09-29T16:38:14;3.20;;;3.00;;
253;SDS011;590;48.772;8.846;2022-09-29T16:40:46;3.30;;;3.10;;
253;SDS011;590;48.772;8.846;2022-09-29T16:43:22;3.87;;;3.30;;
253;SDS011;590;48.772;8.846;2022-09-29T16:45:53;4.30;;;3.87;;
253;SDS011;590;48.772;8.846;2022-09-29T16:48:23;4.67;;;2.50;;
253;SDS011;590;48.772;8.846;2022-09-29T16:50:54;5.00;;;3.60;;
253;SDS011;590;48.772;8.846;2022-09-29T16:53:25;4.40;;;4.10;;
253;SDS011;590;48.772;8.846;2022-09-29T16:56:00;5.70;;;3.73;;
253;SDS011;590;48.772;8.846;2022-09-29T16:58:35;6.80;;;6.10;;
253;SDS011;590;48.772;8.846;2022-09-29T17:01:04;5.13;;;4.83;;